map of SIR home
SIR - Airport
Location
City:  Sion, Valais, Switzerland
Near (Alt.):Sitten
ICAO:LSGS
IATA:SIR

Details
Type:Airport (Flugplatz, Airfield)
Use:Public/Civil, Military, International (customs port of entry)
Latitude:4613'11"N (46.219592)
Longitude:719'36"E (7.326764)
Datum:WGS 1984
Elevation:1585 ft (483 m)
Variation:2.36E (WMM2015v2 magnetic declination)
0.16 annual change
Runways:2
Longest:6562 × 131 ft (2000 × 40 m), paved

Time
Time Zone:UTC+1 (DST+2)
Local Time:

Weather
METAR:LSGS 041350Z VRB03KT CAVOK 05/M08 Q1025

Related Locations
Nearby:
Farthest:CHT: 12186 mi / 19612 km
Waitangi [Tuuta], CIT, NZ

Find:

   beyond  
but within

Other Information
Maps:
NOTAMs:
Links:
Sources:

  
  • flag of Switzerland
  • flag of Valais
  

Sectional Chart

Flight Planning
at skyvector.com

Satellite Image

Google Maps Satellite view

 

Copyright © 2004-2019 Karl L. Swartz. All rights reserved.
The Great Circle Mapper name and logo are trademarks of the Great Circle Mapper.
All other trademarks mentioned herein belong to their respective owners.
Please see credits for attibutions and further copyright information.

  Follow gcmap on Facebook Follow gcmap on Twitter GCmap on LinkedIn

hCard Microformat

Geo Microformat